ADDS METAR Data INFO
IDs: Format: Raw Decoded Include TAF

Data at: 1959 UTC 25 Feb 2018

METAR for:K6B9 (Skaneateles Arpt, NY, US)
Text:K6B9 251955Z AUTO 20009G14KT 160V230 10SM CLR 10/07 A2981 RMK AO2
Temperature: 10.0°C ( 50°F)
Dewpoint: 7.0°C ( 45°F) [RH = 82%]
Pressure (altimeter):29.81 inches Hg (1009.6 mb)
Winds:from the SSW (200 degrees) at 10 MPH (9 knots; 4.6 m/s) gusting to 16 MPH (14 knots; 7.2 m/s)
Visibility:10 or more sm (16+ km)
Ceiling:at least 12,000 feet AGL
Clouds:sky clear below 12,000 feet AGL
QC Flag:automated observation with no human augmentation
Text:K6B9 251935Z AUTO 17009G16KT 140V210 10SM CLR 10/07 A2979 RMK AO2
Temperature: 10.0°C ( 50°F)
Dewpoint: 7.0°C ( 45°F) [RH = 82%]
Pressure (altimeter):29.79 inches Hg (1008.9 mb)
Winds:from the S (170 degrees) at 10 MPH (9 knots; 4.6 m/s) gusting to 18 MPH (16 knots; 8.2 m/s)
Visibility:10 or more sm (16+ km)
Ceiling:at least 12,000 feet AGL
Clouds:sky clear below 12,000 feet AGL
QC Flag:automated observation with no human augmentation
Text:K6B9 251915Z AUTO 19008G17KT 160V220 10SM CLR 10/07 A2979 RMK AO2
Temperature: 10.0°C ( 50°F)
Dewpoint: 7.0°C ( 45°F) [RH = 82%]
Pressure (altimeter):29.79 inches Hg (1008.9 mb)
Winds:from the S (190 degrees) at 9 MPH (8 knots; 4.1 m/s) gusting to 20 MPH (17 knots; 8.7 m/s)
Visibility:10 or more sm (16+ km)
Ceiling:at least 12,000 feet AGL
Clouds:sky clear below 12,000 feet AGL
QC Flag:automated observation with no human augmentation
Text:K6B9 251855Z AUTO 18010G15KT 140V210 10SM CLR 09/07 A2980 RMK AO2
Temperature: 9.0°C ( 48°F)
Dewpoint: 7.0°C ( 45°F) [RH = 87%]
Pressure (altimeter):29.80 inches Hg (1009.2 mb)
Winds:from the S (180 degrees) at 12 MPH (10 knots; 5.1 m/s) gusting to 17 MPH (15 knots; 7.7 m/s)
Visibility:10 or more sm (16+ km)
Ceiling:at least 12,000 feet AGL
Clouds:sky clear below 12,000 feet AGL
QC Flag:automated observation with no human augmentation
Text:K6B9 251835Z AUTO VRB06G13KT 10SM FEW013 SCT019 SCT025 08/06 A2980 RMK AO2
Temperature: 8.0°C ( 46°F)
Dewpoint: 6.0°C ( 43°F) [RH = 87%]
Pressure (altimeter):29.80 inches Hg (1009.2 mb)
Winds:variable direction winds at 7 MPH (6 knots; 3.1 m/s) gusting to 15 MPH (13 knots; 6.7 m/s)
Visibility:10 or more sm (16+ km)
Ceiling:at least 12,000 feet AGL
Clouds: few clouds at 1300 feet AGL, scattered clouds at 1900 feet AGL, scattered clouds at 2500 feet AGL
QC Flag:automated observation with no human augmentation
Text:K6B9 251815Z AUTO 19008G16KT 160V230 9SM SCT015 OVC020 08/06 A2981 RMK AO2
Temperature: 8.0°C ( 46°F)
Dewpoint: 6.0°C ( 43°F) [RH = 87%]
Pressure (altimeter):29.81 inches Hg (1009.6 mb)
Winds:from the S (190 degrees) at 9 MPH (8 knots; 4.1 m/s) gusting to 18 MPH (16 knots; 8.2 m/s)
Visibility: 9 sm ( 14 km)
Ceiling:2000 feet AGL
Clouds: scattered clouds at 1500 feet AGL, overcast cloud deck at 2000 feet AGL
QC Flag:automated observation with no human augmentation
Text:K6B9 251755Z AUTO 20009G21KT 160V230 6SM BR BKN019 OVC024 08/06 A2983 RMK AO2
Temperature: 8.0°C ( 46°F)
Dewpoint: 6.0°C ( 43°F) [RH = 87%]
Pressure (altimeter):29.83 inches Hg (1010.2 mb)
Winds:from the SSW (200 degrees) at 10 MPH (9 knots; 4.6 m/s) gusting to 24 MPH (21 knots; 10.8 m/s)
Visibility: 6 sm ( 10 km)
Ceiling:1900 feet AGL
Clouds: broken clouds at 1900 feet AGL, overcast cloud deck at 2400 feet AGL
Weather:BR (mist)
QC Flag:automated observation with no human augmentation
Text:K6B9 251735Z AUTO 19009G19KT 9SM SCT019 OVC026 08/06 A2981 RMK AO2
Temperature: 8.0°C ( 46°F)
Dewpoint: 6.0°C ( 43°F) [RH = 87%]
Pressure (altimeter):29.81 inches Hg (1009.6 mb)
Winds:from the S (190 degrees) at 10 MPH (9 knots; 4.6 m/s) gusting to 22 MPH (19 knots; 9.8 m/s)
Visibility: 9 sm ( 14 km)
Ceiling:2600 feet AGL
Clouds: scattered clouds at 1900 feet AGL, overcast cloud deck at 2600 feet AGL
QC Flag:automated observation with no human augmentation
Text:K6B9 251715Z AUTO 19008G18KT 130V220 10SM BKN026 BKN035 OVC046 08/06 A2979 RMK AO2
Temperature: 8.0°C ( 46°F)
Dewpoint: 6.0°C ( 43°F) [RH = 87%]
Pressure (altimeter):29.79 inches Hg (1008.9 mb)
Winds:from the S (190 degrees) at 9 MPH (8 knots; 4.1 m/s) gusting to 21 MPH (18 knots; 9.3 m/s)
Visibility:10 or more sm (16+ km)
Ceiling:2600 feet AGL
Clouds: broken clouds at 2600 feet AGL, broken clouds at 3500 feet AGL, overcast cloud deck at 4600 feet AGL
QC Flag:automated observation with no human augmentation
Text:K6B9 251655Z AUTO 16009G21KT 140V200 10SM SCT029 BKN039 OVC055 08/05 A2978 RMK AO2
Temperature: 8.0°C ( 46°F)
Dewpoint: 5.0°C ( 41°F) [RH = 81%]
Pressure (altimeter):29.78 inches Hg (1008.5 mb)
Winds:from the SSE (160 degrees) at 10 MPH (9 knots; 4.6 m/s) gusting to 24 MPH (21 knots; 10.8 m/s)
Visibility:10 or more sm (16+ km)
Ceiling:3900 feet AGL
Clouds: scattered clouds at 2900 feet AGL, broken clouds at 3900 feet AGL, overcast cloud deck at 5500 feet AGL
QC Flag:automated observation with no human augmentation
Text:K6B9 251635Z AUTO 18010G20KT 140V210 10SM OVC029 08/05 A2978 RMK AO2
Temperature: 8.0°C ( 46°F)
Dewpoint: 5.0°C ( 41°F) [RH = 81%]
Pressure (altimeter):29.78 inches Hg (1008.5 mb)
Winds:from the S (180 degrees) at 12 MPH (10 knots; 5.1 m/s) gusting to 23 MPH (20 knots; 10.3 m/s)
Visibility:10 or more sm (16+ km)
Ceiling:2900 feet AGL
Clouds: overcast cloud deck at 2900 feet AGL
QC Flag:automated observation with no human augmentation
Text:K6B9 251615Z AUTO 17013G24KT 140V200 10SM OVC032 08/05 A2977 RMK AO2
Temperature: 8.0°C ( 46°F)
Dewpoint: 5.0°C ( 41°F) [RH = 81%]
Pressure (altimeter):29.77 inches Hg (1008.2 mb)
Winds:from the S (170 degrees) at 15 MPH (13 knots; 6.7 m/s) gusting to 28 MPH (24 knots; 12.3 m/s)
Visibility:10 or more sm (16+ km)
Ceiling:3200 feet AGL
Clouds: overcast cloud deck at 3200 feet AGL
QC Flag:automated observation with no human augmentation
Text:K6B9 251555Z AUTO 16010G23KT 120V190 10SM FEW020 BKN032 OVC075 07/05 A2977 RMK AO2
Temperature: 7.0°C ( 45°F)
Dewpoint: 5.0°C ( 41°F) [RH = 87%]
Pressure (altimeter):29.77 inches Hg (1008.2 mb)
Winds:from the SSE (160 degrees) at 12 MPH (10 knots; 5.1 m/s) gusting to 26 MPH (23 knots; 11.8 m/s)
Visibility:10 or more sm (16+ km)
Ceiling:3200 feet AGL
Clouds: few clouds at 2000 feet AGL, broken clouds at 3200 feet AGL, overcast cloud deck at 7500 feet AGL
QC Flag:automated observation with no human augmentation
Text:K6B9 251535Z AUTO 17012G30KT 140V210 10SM FEW020 BKN027 OVC045 07/05 A2977 RMK AO2
Temperature: 7.0°C ( 45°F)
Dewpoint: 5.0°C ( 41°F) [RH = 87%]
Pressure (altimeter):29.77 inches Hg (1008.2 mb)
Winds:from the S (170 degrees) at 14 MPH (12 knots; 6.2 m/s) gusting to 34 MPH (30 knots; 15.4 m/s)
Visibility:10 or more sm (16+ km)
Ceiling:2700 feet AGL
Clouds: few clouds at 2000 feet AGL, broken clouds at 2700 feet AGL, overcast cloud deck at 4500 feet AGL
QC Flag:automated observation with no human augmentation
Text:K6B9 251515Z AUTO 17015G26KT 140V210 10SM FEW016 FEW029 BKN045 07/05 A2976 RMK AO2
Temperature: 7.0°C ( 45°F)
Dewpoint: 5.0°C ( 41°F) [RH = 87%]
Pressure (altimeter):29.76 inches Hg (1007.9 mb)
Winds:from the S (170 degrees) at 17 MPH (15 knots; 7.7 m/s) gusting to 30 MPH (26 knots; 13.4 m/s)
Visibility:10 or more sm (16+ km)
Ceiling:4500 feet AGL
Clouds: few clouds at 1600 feet AGL, few clouds at 2900 feet AGL, broken clouds at 4500 feet AGL
QC Flag:automated observation with no human augmentation
Text:K6B9 251455Z AUTO 15017G28KT 10SM BKN016 BKN027 BKN040 07/04 A2975 RMK AO2
Temperature: 7.0°C ( 45°F)
Dewpoint: 4.0°C ( 39°F) [RH = 81%]
Pressure (altimeter):29.75 inches Hg (1007.5 mb)
Winds:from the SSE (150 degrees) at 20 MPH (17 knots; 8.7 m/s) gusting to 32 MPH (28 knots; 14.4 m/s)
Visibility:10 or more sm (16+ km)
Ceiling:1600 feet AGL
Clouds: broken clouds at 1600 feet AGL, broken clouds at 2700 feet AGL, broken clouds at 4000 feet AGL
QC Flag:automated observation with no human augmentation
Text:K6B9 251435Z AUTO 14018G26KT 10SM BKN017 BKN040 07/04 A2975 RMK AO2
Temperature: 7.0°C ( 45°F)
Dewpoint: 4.0°C ( 39°F) [RH = 81%]
Pressure (altimeter):29.75 inches Hg (1007.5 mb)
Winds:from the SE (140 degrees) at 21 MPH (18 knots; 9.3 m/s) gusting to 30 MPH (26 knots; 13.4 m/s)
Visibility:10 or more sm (16+ km)
Ceiling:1700 feet AGL
Clouds: broken clouds at 1700 feet AGL, broken clouds at 4000 feet AGL
QC Flag:automated observation with no human augmentation
Text:K6B9 251415Z AUTO 17012G25KT 120V220 10SM FEW018 FEW044 07/04 A2976 RMK AO2
Temperature: 7.0°C ( 45°F)
Dewpoint: 4.0°C ( 39°F) [RH = 81%]
Pressure (altimeter):29.76 inches Hg (1007.9 mb)
Winds:from the S (170 degrees) at 14 MPH (12 knots; 6.2 m/s) gusting to 29 MPH (25 knots; 12.9 m/s)
Visibility:10 or more sm (16+ km)
Ceiling:at least 12,000 feet AGL
Clouds: few clouds at 1800 feet AGL, few clouds at 4400 feet AGL
QC Flag:automated observation with no human augmentation
Text:K6B9 251355Z AUTO 15016G33KT 130V190 10SM FEW044 07/04 A2974 RMK AO2
Temperature: 7.0°C ( 45°F)
Dewpoint: 4.0°C ( 39°F) [RH = 81%]
Pressure (altimeter):29.74 inches Hg (1007.2 mb)
Winds:from the SSE (150 degrees) at 18 MPH (16 knots; 8.2 m/s) gusting to 38 MPH (33 knots; 17.0 m/s)
Visibility:10 or more sm (16+ km)
Ceiling:at least 12,000 feet AGL
Clouds: few clouds at 4400 feet AGL
QC Flag:automated observation with no human augmentation
Text:K6B9 251335Z AUTO 15013G30KT 130V220 10SM SCT016 SCT038 06/04 A2975 RMK AO2
Temperature: 6.0°C ( 43°F)
Dewpoint: 4.0°C ( 39°F) [RH = 87%]
Pressure (altimeter):29.75 inches Hg (1007.5 mb)
Winds:from the SSE (150 degrees) at 15 MPH (13 knots; 6.7 m/s) gusting to 34 MPH (30 knots; 15.4 m/s)
Visibility:10 or more sm (16+ km)
Ceiling:at least 12,000 feet AGL
Clouds: scattered clouds at 1600 feet AGL, scattered clouds at 3800 feet AGL
QC Flag:automated observation with no human augmentation
Text:K6B9 251315Z AUTO 15016G31KT 120V210 10SM SCT016 OVC039 06/04 A2976 RMK AO2
Temperature: 6.0°C ( 43°F)
Dewpoint: 4.0°C ( 39°F) [RH = 87%]
Pressure (altimeter):29.76 inches Hg (1007.9 mb)
Winds:from the SSE (150 degrees) at 18 MPH (16 knots; 8.2 m/s) gusting to 36 MPH (31 knots; 15.9 m/s)
Visibility:10 or more sm (16+ km)
Ceiling:3900 feet AGL
Clouds: scattered clouds at 1600 feet AGL, overcast cloud deck at 3900 feet AGL
QC Flag:automated observation with no human augmentation
Text:K6B9 251255Z AUTO 16013G22KT 130V190 10SM SCT015 BKN041 OVC065 05/03 A2978 RMK AO2 P0003
Temperature: 5.0°C ( 41°F)
Dewpoint: 3.0°C ( 37°F) [RH = 87%]
Pressure (altimeter):29.78 inches Hg (1008.5 mb)
Winds:from the SSE (160 degrees) at 15 MPH (13 knots; 6.7 m/s) gusting to 25 MPH (22 knots; 11.3 m/s)
Visibility:10 or more sm (16+ km)
Ceiling:4100 feet AGL
Clouds: scattered clouds at 1500 feet AGL, broken clouds at 4100 feet AGL, overcast cloud deck at 6500 feet AGL
QC Flag:automated observation with no human augmentation
Text:K6B9 251235Z AUTO 16012G24KT 090V190 3SM -RA BKN015 BKN030 OVC043 05/03 A2977 RMK AO2
Temperature: 5.0°C ( 41°F)
Dewpoint: 3.0°C ( 37°F) [RH = 87%]
Pressure (altimeter):29.77 inches Hg (1008.2 mb)
Winds:from the SSE (160 degrees) at 14 MPH (12 knots; 6.2 m/s) gusting to 28 MPH (24 knots; 12.3 m/s)
Visibility: 3 sm ( 5 km)
Ceiling:1500 feet AGL
Clouds: broken clouds at 1500 feet AGL, broken clouds at 3000 feet AGL, overcast cloud deck at 4300 feet AGL
Weather:-RA (light rain)
QC Flag:automated observation with no human augmentation
Text:K6B9 251215Z AUTO 14013G26KT 100V180 3SM -UP BKN016 OVC040 05/03 A2977 RMK AO2
Temperature: 5.0°C ( 41°F)
Dewpoint: 3.0°C ( 37°F) [RH = 87%]
Pressure (altimeter):29.77 inches Hg (1008.2 mb)
Winds:from the SE (140 degrees) at 15 MPH (13 knots; 6.7 m/s) gusting to 30 MPH (26 knots; 13.4 m/s)
Visibility: 3 sm ( 5 km)
Ceiling:1600 feet AGL
Clouds: broken clouds at 1600 feet AGL, overcast cloud deck at 4000 feet AGL
Weather:UP (unknown precipitation)
QC Flag:automated observation with no human augmentation
Text:K6B9 251155Z AUTO 16014G24KT 130V190 8SM OVC017 05/03 A2978 RMK AO2 P0005
Temperature: 5.0°C ( 41°F)
Dewpoint: 3.0°C ( 37°F) [RH = 87%]
Pressure (altimeter):29.78 inches Hg (1008.5 mb)
Winds:from the SSE (160 degrees) at 16 MPH (14 knots; 7.2 m/s) gusting to 28 MPH (24 knots; 12.3 m/s)
Visibility: 8 sm ( 13 km)
Ceiling:1700 feet AGL
Clouds: overcast cloud deck at 1700 feet AGL
QC Flag:automated observation with no human augmentation
Text:K6B9 251135Z AUTO 14010G19KT 6SM -RA BKN017 BKN027 OVC043 05/03 A2979 RMK AO2
Temperature: 5.0°C ( 41°F)
Dewpoint: 3.0°C ( 37°F) [RH = 87%]
Pressure (altimeter):29.79 inches Hg (1008.9 mb)
Winds:from the SE (140 degrees) at 12 MPH (10 knots; 5.1 m/s) gusting to 22 MPH (19 knots; 9.8 m/s)
Visibility: 6 sm ( 10 km)
Ceiling:1700 feet AGL
Clouds: broken clouds at 1700 feet AGL, broken clouds at 2700 feet AGL, overcast cloud deck at 4300 feet AGL
Weather:-RA (light rain)
QC Flag:automated observation with no human augmentation
Text:K6B9 251115Z AUTO 14012G26KT 6SM -RA SCT016 BKN046 OVC065 05/03 A2981 RMK AO2
Temperature: 5.0°C ( 41°F)
Dewpoint: 3.0°C ( 37°F) [RH = 87%]
Pressure (altimeter):29.81 inches Hg (1009.6 mb)
Winds:from the SE (140 degrees) at 14 MPH (12 knots; 6.2 m/s) gusting to 30 MPH (26 knots; 13.4 m/s)
Visibility: 6 sm ( 10 km)
Ceiling:4600 feet AGL
Clouds: scattered clouds at 1600 feet AGL, broken clouds at 4600 feet AGL, overcast cloud deck at 6500 feet AGL
Weather:-RA (light rain)
QC Flag:automated observation with no human augmentation
Text:K6B9 251055Z AUTO 14011G19KT 6SM BR BKN017 BKN032 OVC065 04/03 A2982 RMK AO2 P0007
Temperature: 4.0°C ( 39°F)
Dewpoint: 3.0°C ( 37°F) [RH = 93%]
Pressure (altimeter):29.82 inches Hg (1009.9 mb)
Winds:from the SE (140 degrees) at 13 MPH (11 knots; 5.7 m/s) gusting to 22 MPH (19 knots; 9.8 m/s)
Visibility: 6 sm ( 10 km)
Ceiling:1700 feet AGL
Clouds: broken clouds at 1700 feet AGL, broken clouds at 3200 feet AGL, overcast cloud deck at 6500 feet AGL
Weather:BR (mist)
QC Flag:automated observation with no human augmentation
Text:K6B9 250935Z AUTO 13008G19KT 100V170 9SM BKN016 BKN031 OVC044 04/03 A2991 RMK AO2
Temperature: 4.0°C ( 39°F)
Dewpoint: 3.0°C ( 37°F) [RH = 93%]
Pressure (altimeter):29.91 inches Hg (1013.0 mb)
Winds:from the SE (130 degrees) at 9 MPH (8 knots; 4.1 m/s) gusting to 22 MPH (19 knots; 9.8 m/s)
Visibility: 9 sm ( 14 km)
Ceiling:1600 feet AGL
Clouds: broken clouds at 1600 feet AGL, broken clouds at 3100 feet AGL, overcast cloud deck at 4400 feet AGL
QC Flag:automated observation with no human augmentation
Text:K6B9 250915Z AUTO 11010G17KT 9SM BKN017 OVC027 04/03 A2992 RMK AO2
Temperature: 4.0°C ( 39°F)
Dewpoint: 3.0°C ( 37°F) [RH = 93%]
Pressure (altimeter):29.92 inches Hg (1013.3 mb)
Winds:from the ESE (110 degrees) at 12 MPH (10 knots; 5.1 m/s) gusting to 20 MPH (17 knots; 8.7 m/s)
Visibility: 9 sm ( 14 km)
Ceiling:1700 feet AGL
Clouds: broken clouds at 1700 feet AGL, overcast cloud deck at 2700 feet AGL
QC Flag:automated observation with no human augmentation
Text:K6B9 250855Z AUTO 11011KT 6SM BR FEW013 BKN018 OVC027 04/03 A2993 RMK AO2 P0004
Temperature: 4.0°C ( 39°F)
Dewpoint: 3.0°C ( 37°F) [RH = 93%]
Pressure (altimeter):29.93 inches Hg (1013.6 mb)
Winds:from the ESE (110 degrees) at 13 MPH (11 knots; 5.7 m/s)
Visibility: 6 sm ( 10 km)
Ceiling:1800 feet AGL
Clouds: few clouds at 1300 feet AGL, broken clouds at 1800 feet AGL, overcast cloud deck at 2700 feet AGL
Weather:BR (mist)
QC Flag:automated observation with no human augmentation
Text:K6B9 250835Z AUTO VRB06KT 6SM BR SCT014 BKN038 OVC070 04/03 A2997 RMK AO2
Temperature: 4.0°C ( 39°F)
Dewpoint: 3.0°C ( 37°F) [RH = 93%]
Pressure (altimeter):29.97 inches Hg (1015.0 mb)
Winds:variable direction winds at 7 MPH (6 knots; 3.1 m/s)
Visibility: 6 sm ( 10 km)
Ceiling:3800 feet AGL
Clouds: scattered clouds at 1400 feet AGL, broken clouds at 3800 feet AGL, overcast cloud deck at 7000 feet AGL
Weather:BR (mist)
QC Flag:automated observation with no human augmentation
Text:K6B9 250815Z AUTO 10012KT 6SM -RA FEW030 SCT044 BKN055 03/02 A2994 RMK AO2
Temperature: 3.0°C ( 37°F)
Dewpoint: 2.0°C ( 36°F) [RH = 93%]
Pressure (altimeter):29.94 inches Hg (1014.0 mb)
Winds:from the E (100 degrees) at 14 MPH (12 knots; 6.2 m/s)
Visibility: 6 sm ( 10 km)
Ceiling:5500 feet AGL
Clouds: few clouds at 3000 feet AGL, scattered clouds at 4400 feet AGL, broken clouds at 5500 feet AGL
Weather:-RA (light rain)
QC Flag:automated observation with no human augmentation